Time;durP1;ratioP1;P1;durP2;ratioP2;P2;SDS_P1;SDS_P2;PMS_P1;PMS_P2;Temp;Humidity;BMP_temperature;BMP_pressure;BME280_temperature;BME280_humidity;BME280_pressure;Samples;Min_cycle;Max_cycle;Signal;HPM_P1;HPM_P2
2022/12/03 00:00:24;;;;;;;26.50;18.27;;;;;;;1.00;92.29;102156.69;5286096;28;20024;-75
2022/12/03 00:02:55;;;;;;;25.47;18.57;;;;;;;1.02;92.47;102165.34;5286000;28;20127;-76
2022/12/03 00:05:26;;;;;;;26.90;18.83;;;;;;;1.05;92.56;102149.22;5266857;28;20104;-76
2022/12/03 00:07:58;;;;;;;27.57;19.27;;;;;;;1.04;92.35;102152.56;5285645;28;20075;-76
2022/12/03 00:10:29;;;;;;;25.83;17.53;;;;;;;1.02;91.67;102154.19;5285907;28;20093;-76
2022/12/03 00:13:01;;;;;;;25.07;17.43;;;;;;;1.00;92.18;102148.97;5286314;28;20032;-75
2022/12/03 00:15:32;;;;;;;26.67;19.33;;;;;;;1.00;92.16;102145.50;5285427;28;20502;-76
2022/12/03 00:18:03;;;;;;;26.20;18.37;;;;;;;1.01;92.50;102144.72;5268210;28;20475;-77
2022/12/03 00:20:35;;;;;;;27.20;19.00;;;;;;;1.01;92.46;102145.59;5286374;28;20039;-76
2022/12/03 00:23:06;;;;;;;29.70;18.90;;;;;;;1.02;92.21;102141.34;5286205;28;20033;-77
2022/12/03 00:25:37;;;;;;;24.83;18.40;;;;;;;1.04;92.52;102139.72;5286139;28;20067;-76
2022/12/03 00:28:09;;;;;;;30.47;19.37;;;;;;;1.01;92.24;102137.88;5286186;28;20035;-76
2022/12/03 00:30:40;;;;;;;25.63;19.30;;;;;;;1.04;92.84;102132.91;5285974;28;20028;-77
2022/12/03 00:33:11;;;;;;;32.17;20.40;;;;;;;1.02;92.73;102129.38;5286400;28;20414;-76
2022/12/03 00:35:43;;;;;;;29.83;18.83;;;;;;;1.04;92.50;102129.47;5286142;28;20039;-76
2022/12/03 00:38:14;;;;;;;28.87;19.07;;;;;;;1.07;93.09;102132.19;5286379;28;20483;-76
2022/12/03 00:40:45;;;;;;;26.27;18.37;;;;;;;1.08;93.24;102134.81;5286523;28;20039;-76
2022/12/03 00:43:17;;;;;;;27.90;18.20;;;;;;;1.03;92.93;102131.16;5289637;28;20031;-76
2022/12/03 00:45:48;;;;;;;26.80;18.80;;;;;;;1.07;93.25;102132.19;5292090;28;20127;-75
2022/12/03 00:48:19;;;;;;;29.43;19.37;;;;;;;1.02;93.29;102131.97;5275212;28;20055;-75
2022/12/03 00:50:51;;;;;;;25.13;18.60;;;;;;;1.01;93.55;102127.63;5294368;28;20036;-75
2022/12/03 00:53:22;;;;;;;25.13;18.87;;;;;;;1.04;92.98;102132.91;5290950;28;20035;-75
2022/12/03 00:55:54;;;;;;;29.37;19.70;;;;;;;1.04;92.82;102132.91;5269892;28;20085;-76
2022/12/03 00:58:25;;;;;;;26.27;19.37;;;;;;;1.03;92.88;102120.88;5285440;28;20455;-76
2022/12/03 01:00:56;;;;;;;30.20;20.30;;;;;;;1.03;93.34;102127.69;5267498;28;20498;-76
2022/12/03 01:03:28;;;;;;;27.00;20.87;;;;;;;1.01;93.15;102127.63;5285069;28;20492;-76
2022/12/03 01:05:59;;;;;;;30.50;19.07;;;;;;;1.01;93.56;102127.63;5267419;28;20033;-76
2022/12/03 01:08:30;;;;;;;32.87;20.73;;;;;;;1.03;93.43;102136.28;5285226;28;20060;-77
2022/12/03 01:11:02;;;;;;;27.80;20.40;;;;;;;1.06;93.19;102127.84;5284411;28;20036;-76
2022/12/03 01:13:33;;;;;;;27.27;19.63;;;;;;;1.04;93.30;102127.75;5266662;28;20086;-76
2022/12/03 01:16:04;;;;;;;30.80;20.60;;;;;;;1.02;93.26;102129.38;5285554;28;20399;-77
2022/12/03 01:18:36;;;;;;;29.17;19.70;;;;;;;1.07;93.22;102127.03;5284624;28;20028;-76
2022/12/03 01:21:07;;;;;;;28.97;20.40;;;;;;;1.11;93.09;102125.50;5284308;28;20032;-76
2022/12/03 01:23:38;;;;;;;31.00;20.97;;;;;;;1.04;93.37;102124.31;5284193;28;20107;-76
2022/12/03 01:26:10;;;;;;;29.83;21.10;;;;;;;1.07;93.34;102130.47;5266013;28;20033;-76
2022/12/03 01:28:41;;;;;;;30.70;20.57;;;;;;;1.10;93.36;102132.31;5284182;28;20078;-76
2022/12/03 01:34:04;;;;;;;31.70;21.05;;;;;;;1.11;93.00;102130.63;5284208;28;20028;-76
2022/12/03 01:36:35;;;;;;;32.63;22.55;;;;;;;1.14;93.14;102130.78;5283607;28;20391;-76
2022/12/03 01:39:06;;;;;;;31.47;21.67;;;;;;;1.08;93.15;102127.13;5265693;28;20036;-76
2022/12/03 01:41:38;;;;;;;30.73;20.83;;;;;;;1.16;94.44;102124.00;5283109;28;20060;-76
2022/12/03 01:44:26;;;;;;;31.13;21.27;;;;;;;1.13;93.90;102117.06;5265350;28;20048;-75
2022/12/03 01:47:01;;;;;;;28.55;20.30;;;;;;;1.10;93.36;102127.19;5288308;28;20267;-75
2022/12/03 01:49:37;;;;;;;28.92;20.67;;;;;;;1.13;93.25;102121.31;5298494;28;20062;-76
2022/12/03 01:52:12;;;;;;;30.52;21.23;;;;;;;1.13;93.45;102111.03;5286549;28;20040;-76
2022/12/03 01:54:51;;;;;;;30.42;20.77;;;;;;;1.11;93.10;102113.53;5284232;28;20093;-76
2022/12/03 01:57:38;;;;;;;29.48;20.33;;;;;;;1.15;93.35;102115.44;5284288;28;20029;-76
2022/12/03 02:00:15;;;;;;;31.10;21.10;;;;;;;1.13;93.17;102118.72;5283893;28;20348;-77
2022/12/03 02:02:51;;;;;;;32.58;22.00;;;;;;;1.10;93.58;102109.22;5284380;28;20029;-76
2022/12/03 02:05:25;;;;;;;33.22;21.27;;;;;;;1.11;93.56;102115.22;5283016;28;20430;-76
2022/12/03 02:07:57;;;;;;;32.70;22.65;;;;;;;1.09;93.73;102105.78;5282945;28;20032;-76
2022/12/03 02:10:34;;;;;;;35.53;22.70;;;;;;;1.06;93.48;102110.75;5266093;28;20047;-76
2022/12/03 02:13:09;;;;;;;30.80;21.48;;;;;;;1.06;93.26;102110.75;5283743;28;20309;-75
2022/12/03 02:15:40;;;;;;;34.33;22.77;;;;;;;1.03;93.63;102114.84;5283156;28;20024;-76
2022/12/03 02:18:11;;;;;;;32.60;22.30;;;;;;;1.03;93.75;102110.63;5283165;28;20471;-76
2022/12/03 02:21:07;;;;;;;34.23;22.67;;;;;;;1.06;94.15;102104.72;5283142;28;20028;-76
2022/12/03 02:24:07;;;;;;;32.03;22.13;;;;;;;1.05;94.02;102105.56;5283379;28;20063;-75
2022/12/03 02:26:39;;;;;;;34.38;23.23;;;;;;;1.03;94.03;102110.63;5274189;28;20043;-76
2022/12/03 02:29:10;;;;;;;30.77;21.60;;;;;;;1.03;94.14;102108.03;5284711;28;20107;-76
2022/12/03 02:31:42;;;;;;;34.03;23.37;;;;;;;1.00;94.23;102099.28;5286974;28;20032;-75
2022/12/03 02:34:52;;;;;;;36.40;24.00;;;;;;;1.06;94.30;102099.59;5287556;28;20025;-76
2022/12/03 02:37:30;;;;;;;33.08;23.40;;;;;;;1.04;94.26;102101.22;5182416;28;20094;-75
2022/12/03 02:40:09;;;;;;;31.83;21.90;;;;;;;1.02;94.75;102103.72;5166099;28;20034;-75
2022/12/03 02:42:41;;;;;;;35.67;23.73;;;;;;;1.03;94.48;102096.88;5250376;28;20033;-76
2022/12/03 02:45:32;;;;;;;33.80;23.30;;;;;;;1.06;94.80;102100.50;5269169;28;20142;-75
2022/12/03 02:48:09;;;;;;;31.88;21.40;;;;;;;1.11;94.72;102097.25;5287331;28;20051;-76
2022/12/03 02:50:45;;;;;;;34.40;23.48;;;;;;;1.05;94.73;102090.16;5304706;28;20029;-75
2022/12/03 02:53:19;;;;;;;35.17;22.98;;;;;;;1.02;94.75;102093.44;5300405;28;20052;-75
2022/12/03 02:55:53;;;;;;;32.45;22.90;;;;;;;1.03;94.67;102090.06;5287729;28;20125;-75
2022/12/03 02:58:26;;;;;;;34.40;23.10;;;;;;;1.04;94.31;102091.81;5286971;28;20405;-75
2022/12/03 03:00:57;;;;;;;;;;;;;;;1.11;94.47;102086.97;5287072;28;20037;-75
2022/12/03 03:03:31;;;;;;;31.90;22.42;;;;;;;1.05;94.27;102087.59;5286112;28;19970;-76
2022/12/03 03:06:05;;;;;;;32.53;22.25;;;;;;;1.08;94.64;102098.00;5293029;28;20032;-75
2022/12/03 03:08:38;;;;;;;36.08;23.23;;;;;;;1.05;94.75;102088.44;5283604;28;20028;-76
2022/12/03 03:11:09;;;;;;;33.63;23.02;;;;;;;1.02;94.62;102085.72;5293044;28;20029;-76
2022/12/03 03:13:41;;;;;;;30.77;22.20;;;;;;;1.08;94.86;102087.72;5287075;28;20033;-75
2022/12/03 03:16:13;;;;;;;35.20;23.50;;;;;;;1.05;94.65;102082.44;5287329;28;20111;-76
2022/12/03 03:18:44;;;;;;;33.00;23.43;;;;;;;1.09;94.52;102089.47;5269477;28;20146;-76
2022/12/03 03:21:16;;;;;;;31.13;22.40;;;;;;;1.07;94.81;102080.81;5286588;28;20095;-76
2022/12/03 03:23:47;;;;;;;30.03;22.07;;;;;;;1.09;94.75;102084.31;5286727;28;20036;-75
2022/12/03 03:26:18;;;;;;;33.77;23.80;;;;;;;1.08;94.67;102078.31;5286098;28;20064;-75
2022/12/03 03:28:50;;;;;;;38.00;24.63;;;;;;;1.05;94.59;102079.88;5286544;28;20021;-75
2022/12/03 03:31:23;;;;;;;34.78;25.55;;;;;;;1.07;94.62;102075.69;5251199;28;20093;-76
2022/12/03 03:33:54;;;;;;;33.03;23.02;;;;;;;1.09;95.06;102071.50;5286201;28;20036;-76
2022/12/03 03:36:26;;;;;;;34.73;24.30;;;;;;;1.09;94.71;102071.50;5268204;28;20044;-76
2022/12/03 03:38:57;;;;;;;32.60;23.03;;;;;;;1.07;94.66;102071.41;5286281;28;20021;-76
2022/12/03 03:41:29;;;;;;;35.27;24.90;;;;;;;1.06;94.83;102069.69;5285510;28;20029;-76
2022/12/03 03:44:04;;;;;;;35.17;24.57;;;;;;;1.07;95.00;102070.53;5267551;28;20033;-76
2022/12/03 03:46:36;;;;;;;35.25;24.40;;;;;;;1.05;94.54;102065.34;5285754;28;20043;-77
2022/12/03 03:49:09;;;;;;;34.03;23.02;;;;;;;1.06;94.71;102072.25;5286294;28;20451;-76
2022/12/03 03:51:40;;;;;;;33.60;24.27;;;;;;;1.07;94.84;102070.53;5285662;28;20033;-76
2022/12/03 03:54:12;;;;;;;33.07;24.37;;;;;;;1.08;94.95;102062.91;5285804;28;20035;-76
2022/12/03 03:56:44;;;;;;;32.87;23.20;;;;;;;1.05;95.05;102067.91;5285704;28;20139;-76
2022/12/03 03:59:15;;;;;;;35.63;25.00;;;;;;;1.08;94.77;102067.19;5285454;28;20120;-76
2022/12/03 04:01:47;;;;;;;35.50;24.47;;;;;;;1.04;94.59;102065.25;5285247;28;20047;-76
2022/12/03 04:04:21;;;;;;;35.47;24.40;;;;;;;1.04;94.82;102063.56;5285359;28;20108;-76
2022/12/03 04:06:52;;;;;;;32.92;23.85;;;;;;;1.07;94.92;102052.56;5285284;28;20386;-76
2022/12/03 04:09:24;;;;;;;34.63;23.77;;;;;;;1.07;95.16;102061.13;5285311;28;20033;-76
2022/12/03 04:14:45;;;;;;;35.97;23.98;;;;;;;1.08;95.00;102055.22;5285124;28;20036;-76
2022/12/03 04:17:16;;;;;;;32.17;23.43;;;;;;;1.08;95.20;102051.78;5267159;28;20028;-76
2022/12/03 04:19:47;;;;;;;34.53;24.53;;;;;;;1.04;95.21;102055.84;5285419;28;20033;-75
2022/12/03 04:30:56;;;;;;;36.42;24.67;;;;;;;1.05;94.93;102061.91;5253489;28;20028;-76
2022/12/03 04:36:17;;;;;;;37.65;26.05;;;;;;;1.04;94.86;102057.56;5285629;28;20480;-76
2022/12/03 04:38:49;;;;;;;35.80;25.63;;;;;;;1.05;95.07;102062.78;5285228;28;20029;-76
2022/12/03 04:41:20;;;;;;;35.70;25.73;;;;;;;1.01;94.77;102058.28;5284534;28;20036;-76
2022/12/03 04:46:41;;;;;;;37.85;25.92;;;;;;;0.99;94.86;102059.03;5284916;28;20044;-75
2022/12/03 04:49:13;;;;;;;37.53;26.57;;;;;;;1.00;95.43;102048.84;5284463;28;20464;-75
2022/12/03 04:51:44;;;;;;;36.13;25.20;;;;;;;1.03;95.16;102053.22;5284122;28;20032;-74
2022/12/03 04:54:15;;;;;;;37.80;25.80;;;;;;;1.02;95.12;102051.47;5289473;28;20029;-75
2022/12/03 04:56:47;;;;;;;38.17;26.67;;;;;;;1.03;95.05;102049.00;5300633;28;20025;-74
2022/12/03 04:59:18;;;;;;;35.87;25.13;;;;;;;1.04;95.32;102050.72;5276083;28;20036;-74
2022/12/03 05:01:50;;;;;;;37.43;26.03;;;;;;;1.05;95.65;102049.94;5284901;28;20037;-75
2022/12/03 05:04:21;;;;;;;36.53;26.20;;;;;;;1.05;95.60;102047.38;5266866;28;20615;-76
2022/12/03 05:06:53;;;;;;;36.63;25.53;;;;;;;1.07;95.95;102045.72;5284614;28;20036;-75
2022/12/03 05:09:24;;;;;;;39.87;25.37;;;;;;;1.06;95.96;102049.13;5266250;28;20091;-75
2022/12/03 05:11:56;;;;;;;35.13;24.63;;;;;;;1.07;95.51;102037.16;5283619;28;20071;-74
2022/12/03 05:14:27;;;;;;;34.80;23.43;;;;;;;1.09;95.81;102038.09;5283887;28;20298;-74
2022/12/03 05:16:58;;;;;;;36.23;26.23;;;;;;;1.09;95.87;102032.97;5265851;28;20135;-75
2022/12/03 05:22:19;;;;;;;33.17;23.30;;;;;;;1.04;95.61;102032.75;5284025;28;20111;-77
2022/12/03 05:24:51;;;;;;;35.23;24.87;;;;;;;1.01;95.73;102032.59;5283857;28;20440;-77
2022/12/03 05:27:22;;;;;;;40.10;26.90;;;;;;;1.02;95.33;102033.50;5283651;28;20480;-78
2022/12/03 05:29:54;;;;;;;37.67;25.83;;;;;;;1.05;95.34;102038.78;5283486;28;20040;-74
2022/12/03 05:32:25;;;;;;;41.07;28.50;;;;;;;0.99;95.68;102033.38;5283391;28;20451;-75
2022/12/03 05:34:56;;;;;;;39.00;27.93;;;;;;;1.00;95.55;102038.56;5283328;28;20139;-76
2022/12/03 05:37:28;;;;;;;37.77;26.60;;;;;;;0.98;95.66;102035.03;5283283;28;20028;-75
2022/12/03 05:39:59;;;;;;;37.90;25.83;;;;;;;1.03;95.91;102031.00;5265389;28;20163;-75
2022/12/03 05:45:26;;;;;;;40.28;26.88;;;;;;;1.00;95.66;102030.88;5284288;28;20143;-76
2022/12/03 05:47:59;;;;;;;38.20;26.85;;;;;;;1.00;95.74;102017.13;5283334;28;20052;-76
2022/12/03 05:50:32;;;;;;;38.05;27.52;;;;;;;0.97;95.58;102024.72;5283461;28;20029;-76
2022/12/03 05:53:04;;;;;;;39.10;25.70;;;;;;;0.99;95.54;102015.38;5283401;28;20033;-75
2022/12/03 05:55:36;;;;;;;40.80;27.48;;;;;;;0.98;95.77;102016.19;5283688;28;20139;-76
2022/12/03 05:58:08;;;;;;;42.90;27.17;;;;;;;0.99;95.97;102018.81;5294944;28;20504;-75
2022/12/03 06:00:39;;;;;;;37.37;25.83;;;;;;;0.99;95.92;102023.97;5302269;28;20056;-77
2022/12/03 06:03:10;;;;;;;40.53;26.83;;;;;;;1.01;96.14;102014.63;5268582;28;20099;-77
2022/12/03 06:05:42;;;;;;;39.30;25.33;;;;;;;0.99;96.01;102017.97;5269978;28;20029;-75
2022/12/03 06:08:13;;;;;;;40.03;26.60;;;;;;;0.94;96.07;102016.88;5287814;28;20123;-75
2022/12/03 06:10:44;;;;;;;39.07;26.40;;;;;;;0.97;96.64;102011.88;5287480;28;20032;-75
2022/12/03 06:13:16;;;;;;;40.73;26.47;;;;;;;1.00;96.60;102006.84;5287040;28;20502;-74
2022/12/03 06:15:47;;;;;;;37.10;25.27;;;;;;;0.97;96.68;102007.63;5287210;28;20502;-74
2022/12/03 06:18:18;;;;;;;39.37;26.97;;;;;;;0.96;97.08;102008.41;5269557;28;20112;-73
2022/12/03 06:20:50;;;;;;;40.60;27.47;;;;;;;0.98;96.62;102009.34;5287089;28;20082;-74
2022/12/03 06:23:21;;;;;;;39.90;26.43;;;;;;;0.99;97.04;102011.13;5287141;28;20460;-74
2022/12/03 06:25:53;;;;;;;43.47;28.87;;;;;;;0.95;96.92;102009.25;5288026;28;20058;-74
2022/12/03 06:28:24;;;;;;;44.20;29.33;;;;;;;0.94;97.03;102010.03;5292957;28;20123;-74
2022/12/03 06:30:55;;;;;;;45.20;28.87;;;;;;;0.96;96.61;102010.13;5291662;28;20024;-74
2022/12/03 06:33:27;;;;;;;42.10;27.43;;;;;;;0.97;96.98;102020.44;5287062;28;20033;-74
2022/12/03 06:35:58;;;;;;;37.27;25.83;;;;;;;0.98;96.96;102016.19;5287277;28;20535;-74
2022/12/03 06:38:29;;;;;;;44.10;28.47;;;;;;;0.99;96.95;102016.25;5269309;28;20051;-74
2022/12/03 06:41:01;;;;;;;38.10;26.30;;;;;;;0.97;96.86;102012.75;5286998;28;20125;-73
2022/12/03 06:43:32;;;;;;;41.80;28.43;;;;;;;0.95;96.59;102011.81;5286363;28;20024;-73
2022/12/03 06:46:03;;;;;;;39.70;26.93;;;;;;;0.96;97.10;102010.97;5284141;28;20052;-73
2022/12/03 06:48:35;;;;;;;36.30;25.73;;;;;;;0.96;96.84;102013.53;5286447;28;20040;-73
2022/12/03 06:51:06;;;;;;;37.10;26.97;;;;;;;0.96;96.99;102012.69;5286412;28;20028;-73
2022/12/03 06:53:38;;;;;;;40.20;28.50;;;;;;;0.89;96.66;102004.69;5287121;28;20480;-74
2022/12/03 06:56:09;;;;;;;41.30;27.67;;;;;;;0.95;97.13;102005.78;5268587;28;20383;-73
2022/12/03 06:58:40;;;;;;;39.23;26.93;;;;;;;0.93;97.30;102005.69;5286088;28;20032;-72
2022/12/03 07:01:12;;;;;;;39.47;25.40;;;;;;;0.91;97.31;102012.47;5289603;28;20432;-71
2022/12/03 07:03:43;;;;;;;39.70;27.30;;;;;;;0.88;97.06;102010.63;5290020;28;20024;-73
2022/12/03 07:06:15;;;;;;;38.67;26.93;;;;;;;0.91;97.47;102003.06;5286086;28;20044;-72
2022/12/03 07:08:46;;;;;;;40.13;26.93;;;;;;;0.92;97.37;102011.66;5286374;28;20036;-73
2022/12/03 07:11:38;;;;;;;39.00;26.97;;;;;;;0.95;97.31;102008.34;5286151;28;20040;-73
2022/12/03 07:14:10;;;;;;;41.57;26.03;;;;;;;0.90;97.63;102005.56;5285767;28;20053;-73
2022/12/03 07:16:42;;;;;;;41.50;26.90;;;;;;;0.95;97.74;102010.91;5286196;28;20066;-72
2022/12/03 07:19:14;;;;;;;38.38;25.38;;;;;;;0.91;97.68;102003.06;5284853;28;20032;-73
2022/12/03 07:21:45;;;;;;;37.37;25.17;;;;;;;0.93;97.16;102005.69;5285844;28;20380;-72
2022/12/03 07:24:16;;;;;;;41.07;27.83;;;;;;;0.93;97.19;102018.53;5285817;28;20032;-72
2022/12/03 07:26:48;;;;;;;40.93;27.73;;;;;;;0.89;97.06;102004.69;5285994;28;20032;-73
2022/12/03 07:29:19;;;;;;;38.23;25.43;;;;;;;0.98;97.02;102011.06;5286302;28;20472;-73
2022/12/03 07:31:50;;;;;;;41.90;25.17;;;;;;;0.94;97.31;102001.47;5267986;28;20079;-72
2022/12/03 07:34:22;;;;;;;37.17;25.17;;;;;;;0.92;97.03;102009.09;5285480;28;20032;-72
2022/12/03 07:36:53;;;;;;;36.03;24.70;;;;;;;0.92;96.68;102011.66;5286009;28;20040;-72
2022/12/03 07:39:25;;;;;;;39.03;26.00;;;;;;;0.97;97.23;101999.91;5284896;28;20119;-72
2022/12/03 07:41:56;;;;;;;40.17;25.57;;;;;;;0.97;96.81;102002.47;5285264;28;20072;-73
2022/12/03 07:44:30;;;;;;;38.37;25.73;;;;;;;0.99;96.90;102007.69;5267507;28;20048;-73
2022/12/03 07:47:01;;;;;;;39.22;26.10;;;;;;;0.96;96.44;102008.41;5285097;28;20424;-74
2022/12/03 07:49:32;;;;;;;36.87;24.87;;;;;;;1.00;96.89;102004.28;5285223;28;20123;-73
2022/12/03 07:52:06;;;;;;;33.50;24.03;;;;;;;1.02;96.56;102005.25;5267402;28;20051;-72
2022/12/03 07:54:37;;;;;;;38.70;25.38;;;;;;;0.97;96.42;102015.31;5286013;28;20115;-72
2022/12/03 07:57:08;;;;;;;39.10;26.13;;;;;;;1.02;96.66;102018.09;5286009;28;20116;-73
2022/12/03 07:59:40;;;;;;;40.53;25.43;;;;;;;0.96;96.70;102010.97;5286495;28;20031;-73
2022/12/03 08:02:11;;;;;;;38.03;26.03;;;;;;;0.98;96.57;102018.75;5268295;28;20086;-72
2022/12/03 08:04:43;;;;;;;37.40;25.97;;;;;;;1.00;96.75;102017.13;5286730;28;20029;-73
2022/12/03 08:07:14;;;;;;;40.03;24.83;;;;;;;1.00;96.59;102012.91;5268522;28;20025;-72
2022/12/03 08:09:45;;;;;;;41.43;26.30;;;;;;;1.03;96.38;102014.69;5286435;28;20029;-73
2022/12/03 08:12:23;;;;;;;37.23;24.00;;;;;;;1.08;96.38;102013.25;5285328;28;20082;-73
2022/12/03 08:14:55;;;;;;;38.72;25.35;;;;;;;0.99;95.83;102016.25;5285974;28;20111;-74
2022/12/03 08:17:27;;;;;;;37.90;23.97;;;;;;;1.04;95.97;102016.47;5267650;28;20599;-73
2022/12/03 08:19:58;;;;;;;36.78;25.40;;;;;;;1.09;95.92;102021.03;5267119;28;20047;-73
2022/12/03 08:22:30;;;;;;;42.03;25.97;;;;;;;1.09;95.14;102017.56;5284642;28;20035;-73
2022/12/03 08:25:01;;;;;;;36.53;23.87;;;;;;;1.16;95.63;102014.47;5266977;28;20036;-73
2022/12/03 08:27:33;;;;;;;40.20;24.33;;;;;;;1.15;94.95;102017.84;5266193;28;20024;-73
2022/12/03 08:30:05;;;;;;;35.60;22.20;;;;;;;1.19;94.95;102014.63;5285185;28;20052;-74
2022/12/03 08:32:36;;;;;;;37.63;23.65;;;;;;;1.21;94.51;102018.13;5266702;28;20383;-74
2022/12/03 08:35:10;;;;;;;36.40;23.13;;;;;;;1.24;94.14;102022.50;5285062;28;20036;-73
2022/12/03 08:37:41;;;;;;;36.78;23.90;;;;;;;1.27;93.66;102023.53;5284555;28;20070;-73
2022/12/03 08:40:37;;;;;;;35.63;22.73;;;;;;;1.31;93.53;102024.56;5284426;28;20032;-72
2022/12/03 08:43:24;;;;;;;37.30;23.42;;;;;;;1.35;93.37;102030.69;5284925;28;20024;-74
2022/12/03 08:45:56;;;;;;;37.45;23.35;;;;;;;1.34;93.03;102013.56;5284437;28;20222;-73
2022/12/03 08:48:36;;;;;;;37.95;23.08;;;;;;;1.31;93.05;102024.56;5284419;28;20127;-74
2022/12/03 08:51:17;;;;;;;36.58;23.42;;;;;;;1.37;93.02;102018.81;5285055;28;20399;-74
2022/12/03 08:53:52;;;;;;;35.83;23.33;;;;;;;1.36;93.45;102020.50;5284689;28;20111;-73
2022/12/03 08:56:26;;;;;;;39.38;22.40;;;;;;;1.41;93.06;102020.72;5284350;28;20024;-72
2022/12/03 08:59:24;;;;;;;36.67;23.65;;;;;;;1.49;92.75;102015.91;5284762;28;20433;-73
2022/12/03 09:01:57;;;;;;;37.13;21.38;;;;;;;1.48;92.86;102019.28;5284710;28;20029;-74
2022/12/03 09:04:45;;;;;;;33.25;22.58;;;;;;;1.43;92.10;102019.06;5284236;28;20039;-74
2022/12/03 09:07:16;;;;;;;36.45;22.85;;;;;;;1.44;92.46;102019.16;5284749;28;20029;-73
2022/12/03 09:09:48;;;;;;;37.63;23.07;;;;;;;1.41;92.64;102024.16;5285431;28;20046;-73
2022/12/03 09:12:19;;;;;;;39.07;24.53;;;;;;;1.34;91.91;102018.69;5285285;28;20032;-74
2022/12/03 09:14:50;;;;;;;37.30;23.80;;;;;;;1.35;92.69;102020.44;5286174;28;20032;-73
2022/12/03 09:17:22;;;;;;;37.60;23.00;;;;;;;1.37;92.62;102021.38;5285154;28;20033;-74
2022/12/03 09:19:53;;;;;;;39.00;25.00;;;;;;;1.37;92.67;102014.56;5286119;28;20028;-73
2022/12/03 09:22:25;;;;;;;39.40;24.53;;;;;;;1.36;92.50;102020.50;5284545;28;20038;-75
2022/12/03 09:24:56;;;;;;;37.47;22.87;;;;;;;1.39;92.94;102024.91;5266768;28;20037;-73
2022/12/03 09:27:27;;;;;;;37.60;24.70;;;;;;;1.39;92.25;102022.34;5286936;28;20140;-73
2022/12/03 09:29:59;;;;;;;39.83;21.90;;;;;;;1.39;91.79;102020.63;5288327;28;20044;-73
2022/12/03 09:32:30;;;;;;;37.67;22.90;;;;;;;1.34;91.56;102018.69;5284394;28;20097;-74
2022/12/03 09:35:02;;;;;;;37.20;23.90;;;;;;;1.30;91.55;102025.34;5283585;28;20060;-74
2022/12/03 09:37:33;;;;;;;39.92;23.52;;;;;;;1.31;91.49;102022.00;5283374;28;20028;-74
2022/12/03 09:40:06;;;;;;;36.57;22.60;;;;;;;1.30;91.28;102017.66;5283402;28;20024;-74
2022/12/03 09:42:37;;;;;;;42.95;23.52;;;;;;;1.32;91.36;102020.28;5283666;28;20032;-74
2022/12/03 09:45:13;;;;;;;39.73;23.53;;;;;;;1.35;90.59;102015.28;5281262;28;20057;-74
2022/12/03 09:47:47;;;;;;;35.63;22.05;;;;;;;1.28;90.62;102009.88;5283625;28;20146;-74
2022/12/03 09:50:22;;;;;;;37.10;22.33;;;;;;;1.23;90.58;102011.38;5283232;28;20484;-74
2022/12/03 09:52:57;;;;;;;37.50;23.20;;;;;;;1.28;91.12;102007.31;5283912;28;20035;-74
2022/12/03 09:55:29;;;;;;;40.22;23.98;;;;;;;1.25;90.56;102008.88;5290267;28;20370;-74
2022/12/03 09:58:01;;;;;;;38.08;23.58;;;;;;;1.23;90.19;102002.78;5289884;28;20039;-73
2022/12/03 10:00:32;;;;;;;34.67;22.07;;;;;;;1.30;89.84;102002.22;5283349;28;20103;-74
2022/12/03 10:03:05;;;;;;;37.17;21.70;;;;;;;1.28;89.51;101998.72;5283946;28;20082;-74
2022/12/03 10:05:37;;;;;;;34.15;20.40;;;;;;;1.27;89.13;101999.53;5283946;28;20036;-73
2022/12/03 10:08:10;;;;;;;34.57;20.10;;;;;;;1.22;88.80;102001.91;5283683;28;20033;-74
2022/12/03 10:10:43;;;;;;;31.77;20.58;;;;;;;1.18;88.38;102004.28;5283042;28;20021;-74
2022/12/03 10:13:24;;;;;;;30.67;20.17;;;;;;;1.25;87.97;101993.44;5283146;28;20033;-75
2022/12/03 10:15:59;;;;;;;32.33;19.73;;;;;;;1.24;87.67;101996.81;5283949;28;20025;-73
2022/12/03 10:18:33;;;;;;;29.90;19.67;;;;;;;1.19;87.19;101991.50;5283425;28;20024;-73
2022/12/03 10:21:16;;;;;;;29.40;19.58;;;;;;;1.19;86.97;101990.59;5282979;28;20029;-75
2022/12/03 10:23:49;;;;;;;;;;;;;;;1.30;87.86;101980.81;5283502;28;20235;-72
2022/12/03 10:26:36;;;;;;;30.03;19.20;;;;;;;1.23;87.38;101975.41;5283173;28;19912;-74
2022/12/03 10:29:17;;;;;;;34.42;18.67;;;;;;;1.18;87.23;101970.88;5282863;28;20456;-74
2022/12/03 10:31:55;;;;;;;28.95;18.42;;;;;;;1.17;87.12;101963.97;5283130;28;20047;-74
2022/12/03 10:34:35;;;;;;;27.98;19.05;;;;;;;1.12;86.63;101975.75;5282533;28;20028;-73
2022/12/03 10:37:18;;;;;;;29.95;18.20;;;;;;;1.15;86.43;101974.19;5282614;28;20064;-73
2022/12/03 10:39:54;;;;;;;;;;;;;;;1.25;86.89;101962.63;5283720;28;20090;-73
2022/12/03 10:42:28;;;;;;;30.40;18.88;;;;;;;1.14;87.87;101953.56;5282815;28;19920;-73
2022/12/03 10:45:11;;;;;;;28.25;17.77;;;;;;;1.18;87.30;101950.34;5264150;28;20044;-74
2022/12/03 10:47:43;;;;;;;;;;;;;;;1.30;87.79;101950.00;5283179;28;20059;-74
2022/12/03 10:50:18;;;;;;;28.02;18.33;;;;;;;1.20;86.72;101949.56;5266787;28;20306;-73
2022/12/03 10:52:50;;;;;;;31.95;18.80;;;;;;;1.27;87.49;101945.59;5286731;28;20072;-72
2022/12/03 10:55:21;;;;;;;31.93;20.23;;;;;;;1.39;86.88;101930.72;5286970;28;20067;-73
2022/12/03 10:57:53;;;;;;;28.27;18.80;;;;;;;1.40;85.56;101941.84;5286887;28;20036;-73
2022/12/03 11:00:24;;;;;;;29.03;18.13;;;;;;;1.46;85.33;101926.72;5286445;28;20039;-74
2022/12/03 11:02:56;;;;;;;27.13;18.10;;;;;;;1.53;85.42;101927.84;5286494;28;20078;-74
2022/12/03 11:05:27;;;;;;;27.10;18.03;;;;;;;1.62;84.91;101933.38;5286583;28;20035;-74
2022/12/03 11:07:58;;;;;;;28.73;19.33;;;;;;;1.61;84.39;101927.38;5287091;28;20152;-73
2022/12/03 11:10:30;;;;;;;27.07;18.07;;;;;;;1.74;85.40;101933.91;5285960;28;20094;-73
2022/12/03 11:13:32;;;;;;;28.30;18.33;;;;;;;1.80;84.75;101925.56;5286148;28;20033;-73
2022/12/03 11:16:05;;;;;;;27.67;17.52;;;;;;;1.67;83.53;101919.03;5286571;28;20043;-72
2022/12/03 11:18:36;;;;;;;28.10;19.25;;;;;;;1.74;83.58;101926.19;5286031;28;20459;-72
2022/12/03 11:21:13;;;;;;;28.07;19.03;;;;;;;1.76;83.81;101926.25;5286264;28;20043;-73
2022/12/03 11:23:44;;;;;;;28.38;18.75;;;;;;;1.74;84.00;101926.19;5285852;28;20151;-73
2022/12/03 11:26:17;;;;;;;30.47;19.43;;;;;;;1.70;83.91;101916.59;5286267;28;20107;-74
2022/12/03 11:28:53;;;;;;;32.70;22.15;;;;;;;1.62;84.00;101913.69;5285749;28;20039;-73
2022/12/03 11:31:46;;;;;;;31.00;20.20;;;;;;;1.68;84.08;101910.50;5286057;28;20078;-74
2022/12/03 11:34:17;;;;;;;28.83;19.90;;;;;;;1.59;83.61;101903.28;5286117;28;20074;-74
2022/12/03 11:37:10;;;;;;;31.17;19.90;;;;;;;1.59;83.65;101899.84;5286296;28;20542;-74
2022/12/03 11:40:14;;;;;;;31.67;20.88;;;;;;;1.61;83.74;101904.25;5267337;28;20077;-73
2022/12/03 11:42:47;;;;;;;28.23;19.10;;;;;;;1.49;83.45;101902.84;5285563;28;20502;-72
2022/12/03 11:45:29;;;;;;;29.25;20.85;;;;;;;1.48;83.54;101894.25;5285043;28;20518;-73
2022/12/03 11:48:10;;;;;;;27.00;18.45;;;;;;;1.51;83.39;101894.38;5285151;28;20028;-73
2022/12/03 11:50:51;;;;;;;25.80;18.20;;;;;;;1.50;83.10;101890.06;5286169;28;20039;-73
2022/12/03 11:53:25;;;;;;;29.70;18.95;;;;;;;1.47;83.59;101886.50;5285421;28;20120;-74
2022/12/03 11:56:09;;;;;;;29.48;19.33;;;;;;;1.48;83.91;101889.09;5285709;28;20091;-75
2022/12/03 11:58:42;;;;;;;31.48;23.52;;;;;;;1.45;84.45;101884.72;5285559;28;20025;-74
2022/12/03 12:01:15;;;;;;;28.65;19.63;;;;;;;1.49;84.08;101884.88;5285087;28;20070;-74
2022/12/03 12:03:48;;;;;;;31.45;21.48;;;;;;;1.52;84.42;101883.28;5285642;28;20036;-74
2022/12/03 12:06:20;;;;;;;30.15;19.58;;;;;;;1.53;83.89;101887.63;5285085;28;20037;-74
2022/12/03 12:08:51;;;;;;;27.53;18.63;;;;;;;1.58;84.08;101886.13;5285443;28;20332;-73
2022/12/03 12:11:30;;;;;;;28.03;19.70;;;;;;;1.62;83.54;101889.69;5267060;28;20032;-73
2022/12/03 12:14:11;;;;;;;28.63;19.42;;;;;;;1.62;83.67;101875.13;5285234;28;20028;-73